createdAt,value
2024-01-15T00:02:16.193Z,-4.11
2024-01-15T00:04:43.998Z,-4.10
2024-01-15T00:07:11.632Z,-4.06
2024-01-15T00:09:39.384Z,-4.05
2024-01-15T00:12:07.730Z,-4.05
2024-01-15T00:14:35.253Z,-4.00
2024-01-15T00:17:02.868Z,-4.00
2024-01-15T00:19:33.569Z,-3.98
2024-01-15T00:22:01.466Z,-3.98
2024-01-15T00:24:29.093Z,-3.97
2024-01-15T00:26:56.997Z,-4.04
2024-01-15T00:29:24.556Z,-3.98
2024-01-15T00:31:52.309Z,-4.05
2024-01-15T00:34:20.035Z,-4.05
2024-01-15T00:36:49.564Z,-4.04
2024-01-15T00:39:17.974Z,-4.03
2024-01-15T00:41:45.654Z,-4.01
2024-01-15T00:44:13.337Z,-4.05
2024-01-15T00:46:45.592Z,-4.06
2024-01-15T00:49:13.496Z,-4.03
2024-01-15T00:51:41.328Z,-4.09
2024-01-15T00:54:10.558Z,-4.08
2024-01-15T00:56:38.307Z,-4.11
2024-01-15T00:59:05.886Z,-4.09
2024-01-15T01:01:33.607Z,-4.09
2024-01-15T01:04:01.346Z,-4.03
2024-01-15T01:06:31.405Z,-4.01
2024-01-15T01:09:00.232Z,-3.99
2024-01-15T01:11:29.209Z,-3.99
2024-01-15T01:13:57.859Z,-4.00
2024-01-15T01:16:25.406Z,-4.06
2024-01-15T01:18:53.291Z,-3.99
2024-01-15T01:21:21.371Z,-3.96
2024-01-15T01:23:49.093Z,-4.06
2024-01-15T01:26:17.653Z,-4.07
2024-01-15T01:28:46.710Z,-4.06
2024-01-15T01:31:14.458Z,-4.11
2024-01-15T01:33:42.276Z,-4.09
2024-01-15T01:36:10.853Z,-4.16
2024-01-15T01:38:39.416Z,-4.17
2024-01-15T01:41:07.131Z,-4.22
2024-01-15T01:43:34.812Z,-4.24
2024-01-15T01:46:04.384Z,-4.24
2024-01-15T01:48:33.278Z,-4.27
2024-01-15T01:51:04.617Z,-4.30
2024-01-15T01:53:34.748Z,-4.35
2024-01-15T01:56:04.024Z,-4.31
2024-01-15T01:58:32.991Z,-4.30
2024-01-15T02:01:00.998Z,-4.26
2024-01-15T02:03:31.713Z,-4.24
2024-01-15T02:06:00.830Z,-4.22
2024-01-15T02:08:28.662Z,-4.25
2024-01-15T02:10:56.289Z,-4.25
2024-01-15T02:13:23.948Z,-4.24
2024-01-15T02:15:51.642Z,-4.27
2024-01-15T02:18:19.407Z,-4.28
2024-01-15T02:20:48.948Z,-4.31
2024-01-15T02:23:17.902Z,-4.28
2024-01-15T02:25:47.158Z,-4.27
2024-01-15T02:28:15.945Z,-4.28
2024-01-15T02:30:44.728Z,-4.28
2024-01-15T02:33:13.702Z,-4.24
2024-01-15T02:35:42.052Z,-4.21
2024-01-15T02:38:09.848Z,-4.18
2024-01-15T02:40:39.894Z,-4.14
2024-01-15T02:43:07.467Z,-4.10
2024-01-15T02:45:35.078Z,-4.06
2024-01-15T02:48:02.799Z,-4.04
2024-01-15T02:50:30.460Z,-4.04
2024-01-15T02:52:58.118Z,-4.01
2024-01-15T02:55:25.786Z,-3.96
2024-01-15T02:57:54.846Z,-3.88
2024-01-15T03:00:22.501Z,-3.42
2024-01-15T03:02:52.082Z,-3.15
2024-01-15T03:05:19.793Z,-2.95
2024-01-15T03:07:47.364Z,-2.68
2024-01-15T03:10:15.041Z,-2.56
2024-01-15T03:12:42.705Z,-2.43
2024-01-15T03:15:11.904Z,-2.42
2024-01-15T03:17:39.546Z,-2.34
2024-01-15T03:20:08.597Z,-2.40
2024-01-15T03:22:36.230Z,-2.32
2024-01-15T03:25:04.805Z,-2.30
2024-01-15T03:27:32.455Z,-2.21
2024-01-15T03:30:00.134Z,-2.17
2024-01-15T03:32:29.256Z,-2.14
2024-01-15T03:34:56.902Z,-2.13
2024-01-15T03:37:24.627Z,-2.10
2024-01-15T03:39:52.375Z,-2.08
2024-01-15T03:42:20.129Z,-2.05
2024-01-15T03:44:47.748Z,-2.03
2024-01-15T03:47:15.658Z,-2.04
2024-01-15T03:49:44.749Z,-1.97
2024-01-15T03:52:12.340Z,-1.97
2024-01-15T03:54:40.109Z,-1.95
2024-01-15T03:57:07.857Z,-1.98
2024-01-15T03:59:35.545Z,-1.92
2024-01-15T04:02:03.181Z,-1.89
2024-01-15T04:04:31.050Z,-1.87
2024-01-15T04:07:00.175Z,-1.86
2024-01-15T04:09:27.891Z,-1.84
2024-01-15T04:11:55.496Z,-1.86
2024-01-15T04:14:23.161Z,-1.85
2024-01-15T04:16:50.746Z,-1.86
2024-01-15T04:19:18.411Z,-1.86
2024-01-15T04:21:46.240Z,-1.81
2024-01-15T04:24:15.656Z,-1.83
2024-01-15T04:26:44.139Z,-1.82
2024-01-15T04:29:11.710Z,-1.83
2024-01-15T04:31:39.417Z,-1.85
2024-01-15T04:34:07.250Z,-1.80
2024-01-15T04:36:40.083Z,-1.79
2024-01-15T04:39:08.044Z,-1.82
2024-01-15T04:41:37.075Z,-1.82
2024-01-15T04:44:04.942Z,-1.82
2024-01-15T04:46:32.568Z,-1.81
2024-01-15T04:49:00.346Z,-1.83
2024-01-15T04:51:28.250Z,-1.85
2024-01-15T04:53:55.923Z,-1.83
2024-01-15T04:56:23.654Z,-1.84
2024-01-15T04:58:52.681Z,-1.84
2024-01-15T05:01:20.348Z,-1.82
2024-01-15T05:03:48.212Z,-1.85
2024-01-15T05:06:16.087Z,-1.87
2024-01-15T05:08:43.865Z,-1.82
2024-01-15T05:11:11.494Z,-1.84
2024-01-15T05:13:39.097Z,-1.84
2024-01-15T05:16:08.183Z,-1.80
2024-01-15T05:18:35.912Z,-1.79
2024-01-15T05:21:03.757Z,-1.78
2024-01-15T05:23:32.127Z,-1.77
2024-01-15T05:25:59.775Z,-1.74
2024-01-15T05:28:27.339Z,-1.75
2024-01-15T05:30:56.720Z,-1.75
2024-01-15T05:33:25.962Z,-1.76
2024-01-15T05:35:55.018Z,-1.72
2024-01-15T05:38:22.700Z,-1.68
2024-01-15T05:40:50.304Z,-1.67
2024-01-15T05:43:17.897Z,-1.65
2024-01-15T05:45:48.384Z,-1.63
2024-01-15T05:48:16.271Z,-1.70
2024-01-15T05:50:45.536Z,-1.64
2024-01-15T05:53:13.244Z,-1.64
2024-01-15T05:55:40.831Z,-1.60
2024-01-15T05:58:08.429Z,-1.59
2024-01-15T06:00:37.122Z,-1.62
2024-01-15T06:03:05.655Z,-1.62
2024-01-15T06:05:33.376Z,-1.59
2024-01-15T06:08:02.350Z,-1.58
2024-01-15T06:10:29.874Z,-1.59
2024-01-15T06:12:57.573Z,-1.58
2024-01-15T06:15:25.164Z,-1.59
2024-01-15T06:17:52.836Z,-1.59
2024-01-15T06:20:20.510Z,-1.58
2024-01-15T06:22:48.104Z,-1.57
2024-01-15T06:25:17.103Z,-1.56
2024-01-15T06:27:44.746Z,-1.56
2024-01-15T06:30:13.563Z,-1.57
2024-01-15T06:32:41.405Z,-1.51
2024-01-15T06:35:11.595Z,-1.49
2024-01-15T06:37:39.190Z,-1.51
2024-01-15T06:40:08.172Z,-1.49
2024-01-15T06:42:37.269Z,-1.47
2024-01-15T06:45:06.178Z,-1.43
2024-01-15T06:47:33.879Z,-1.44
2024-01-15T06:50:01.888Z,-1.42
2024-01-15T06:52:29.692Z,-1.43
2024-01-15T06:54:57.384Z,-1.42
2024-01-15T06:57:24.985Z,-1.36
2024-01-15T06:59:53.991Z,-1.41
2024-01-15T07:02:22.593Z,-1.38
2024-01-15T07:04:50.267Z,-1.37
2024-01-15T07:07:18.221Z,-1.37
2024-01-15T07:09:45.852Z,-1.36
2024-01-15T07:12:13.510Z,-1.37
2024-01-15T07:14:41.117Z,-1.34
2024-01-15T07:17:10.064Z,-1.32
2024-01-15T07:19:37.842Z,-1.26
2024-01-15T07:22:05.951Z,-1.28
2024-01-15T07:24:35.714Z,-1.29
2024-01-15T07:27:05.738Z,-1.24
2024-01-15T07:29:34.341Z,-1.26
2024-01-15T07:32:02.098Z,-1.22
2024-01-15T07:34:31.330Z,-1.17
2024-01-15T07:36:59.250Z,-1.14
2024-01-15T07:39:27.059Z,-1.14
2024-01-15T07:41:54.701Z,-1.05
2024-01-15T07:44:22.272Z,-1.07
2024-01-15T07:46:50.004Z,-1.02
2024-01-15T07:49:18.044Z,-0.99
2024-01-15T07:51:47.285Z,-1.00
2024-01-15T07:54:14.952Z,-0.98
2024-01-15T07:56:55.020Z,-0.98
2024-01-15T07:59:22.711Z,-0.97
2024-01-15T08:01:50.480Z,-0.97
2024-01-15T08:04:18.225Z,-0.95
2024-01-15T08:06:47.803Z,-0.96
2024-01-15T08:09:15.536Z,-0.93
2024-01-15T08:11:43.779Z,-0.92
2024-01-15T08:14:12.098Z,-0.99
2024-01-15T08:16:40.078Z,-0.91
2024-01-15T08:19:08.351Z,-0.89
2024-01-15T08:21:36.281Z,-0.94
2024-01-15T08:24:05.878Z,-0.83
2024-01-15T08:26:33.902Z,-0.79
2024-01-15T08:29:01.555Z,-0.79
2024-01-15T08:31:29.345Z,-0.77
2024-01-15T08:33:57.164Z,-0.76
2024-01-15T08:36:25.963Z,-0.76
2024-01-15T08:38:53.617Z,-0.75
2024-01-15T08:41:22.789Z,-0.69
2024-01-15T08:43:50.390Z,-0.68
2024-01-15T08:46:17.985Z,-0.68
2024-01-15T08:48:45.770Z,-0.65
2024-01-15T08:51:13.684Z,-0.65
2024-01-15T08:53:41.397Z,-0.58
2024-01-15T08:56:09.738Z,-0.57
2024-01-15T08:58:38.714Z,-0.56
2024-01-15T09:01:06.710Z,-0.53
2024-01-15T09:03:35.305Z,-0.53
2024-01-15T09:06:03.122Z,-0.48
2024-01-15T09:08:30.738Z,-0.51
2024-01-15T09:10:58.574Z,-0.53
2024-01-15T09:13:26.230Z,-0.46
2024-01-15T09:15:55.426Z,-0.50
2024-01-15T09:18:23.106Z,-0.46
2024-01-15T09:20:51.222Z,-0.59
2024-01-15T09:23:18.822Z,-0.47
2024-01-15T09:25:46.521Z,-0.34
2024-01-15T09:28:14.882Z,-0.30
2024-01-15T09:30:42.651Z,-0.27
2024-01-15T09:33:11.827Z,-0.30
2024-01-15T09:35:39.538Z,-0.27
2024-01-15T09:38:07.150Z,-0.26
2024-01-15T09:40:34.999Z,-0.23
2024-01-15T09:43:03.913Z,-0.26
2024-01-15T09:45:31.924Z,-0.25
2024-01-15T09:48:00.203Z,-0.31
2024-01-15T09:50:29.483Z,-0.23
2024-01-15T09:52:58.628Z,-0.16
2024-01-15T09:55:26.334Z,-0.17
2024-01-15T09:57:56.480Z,-0.17
2024-01-15T10:00:24.929Z,-0.18
2024-01-15T10:02:52.483Z,-0.19
2024-01-15T10:05:20.189Z,-0.15
2024-01-15T10:07:51.164Z,-0.12
2024-01-15T10:10:18.783Z,-0.07
2024-01-15T10:12:46.541Z,-0.21
2024-01-15T10:15:14.324Z,-0.01
2024-01-15T10:17:43.245Z,0.08
2024-01-15T10:20:12.483Z,0.07
2024-01-15T10:22:52.628Z,0.10
2024-01-15T10:25:26.834Z,0.17
2024-01-15T10:28:02.386Z,0.18
2024-01-15T10:30:30.588Z,0.22
2024-01-15T10:33:00.583Z,0.20
2024-01-15T10:35:30.107Z,0.20
2024-01-15T10:37:57.946Z,0.12
2024-01-15T10:40:26.953Z,0.22
2024-01-15T10:42:55.004Z,0.23
2024-01-15T10:45:23.439Z,0.24
2024-01-15T10:47:51.106Z,0.26
2024-01-15T10:50:18.957Z,0.32
2024-01-15T10:52:46.921Z,0.34
2024-01-15T10:55:19.505Z,0.40
2024-01-15T10:57:50.844Z,0.43
2024-01-15T11:00:19.057Z,0.45
2024-01-15T11:02:47.331Z,0.45
2024-01-15T11:05:15.063Z,0.45
2024-01-15T11:07:43.365Z,0.46
2024-01-15T11:10:39.173Z,0.40
2024-01-15T11:13:11.813Z,0.43
2024-01-15T11:16:00.741Z,0.41
2024-01-15T11:18:31.036Z,0.40
2024-01-15T11:21:24.496Z,0.44
2024-01-15T11:23:54.971Z,0.40
2024-01-15T11:26:31.204Z,0.40
2024-01-15T11:29:01.407Z,0.41
2024-01-15T11:31:30.117Z,0.42
2024-01-15T11:33:58.081Z,0.41
2024-01-15T11:36:59.146Z,0.43
2024-01-15T11:39:44.094Z,0.49
2024-01-15T11:42:13.180Z,0.50
2024-01-15T11:44:42.856Z,0.51
2024-01-15T11:47:16.511Z,0.44
2024-01-15T11:50:03.570Z,0.40
2024-01-15T11:52:34.921Z,0.23
2024-01-15T11:55:09.017Z,0.19
2024-01-15T11:57:42.805Z,0.18
2024-01-15T12:00:13.430Z,0.16
2024-01-15T12:02:42.518Z,0.18
2024-01-15T12:05:11.179Z,0.22
2024-01-15T12:07:39.054Z,0.24
2024-01-15T12:10:09.952Z,0.24
2024-01-15T12:12:48.363Z,0.24
2024-01-15T12:15:17.747Z,0.27
2024-01-15T12:17:46.530Z,0.37
2024-01-15T12:20:16.949Z,0.39
2024-01-15T12:22:53.430Z,0.45
2024-01-15T12:25:30.229Z,0.46
2024-01-15T12:27:58.415Z,0.47
2024-01-15T12:30:28.768Z,0.49
2024-01-15T12:32:56.723Z,0.53
2024-01-15T12:35:27.268Z,0.53
2024-01-15T12:37:55.746Z,0.42
2024-01-15T12:40:24.485Z,0.27
2024-01-15T12:42:52.196Z,0.25
2024-01-15T12:45:20.350Z,0.25
2024-01-15T12:47:49.794Z,0.27
2024-01-15T12:50:20.080Z,0.25
2024-01-15T12:52:48.883Z,0.30
2024-01-15T12:55:17.086Z,0.29
2024-01-15T12:57:46.417Z,0.30
2024-01-15T13:00:15.426Z,0.28
2024-01-15T13:02:44.594Z,0.19
2024-01-15T13:05:15.434Z,0.15
2024-01-15T13:07:44.577Z,-0.03
2024-01-15T13:10:13.496Z,-0.17
2024-01-15T13:12:42.733Z,-0.22
2024-01-15T13:15:14.988Z,-0.22
2024-01-15T13:17:43.929Z,-0.18
2024-01-15T13:20:14.847Z,-0.17
2024-01-15T13:22:45.347Z,-0.25
2024-01-15T13:25:13.519Z,-0.33
2024-01-15T13:27:42.235Z,-0.35
2024-01-15T13:30:12.101Z,-0.50
2024-01-15T13:32:39.913Z,-0.47
2024-01-15T13:35:10.978Z,-0.39
2024-01-15T13:37:42.503Z,-0.38
2024-01-15T13:40:17.405Z,-0.40
2024-01-15T13:42:46.965Z,-0.30
2024-01-15T13:45:18.119Z,-0.42
2024-01-15T13:47:46.104Z,-0.45
2024-01-15T13:50:13.970Z,-0.45
2024-01-15T13:52:43.257Z,-0.47
2024-01-15T13:55:11.227Z,-0.50
2024-01-15T13:57:39.257Z,-0.58
2024-01-15T14:00:12.897Z,-0.57
2024-01-15T14:02:41.321Z,-0.64
2024-01-15T14:05:09.679Z,-0.61
2024-01-15T14:07:37.452Z,-0.64
2024-01-15T14:10:09.166Z,-0.65
2024-01-15T14:12:37.536Z,-0.65
2024-01-15T14:15:06.843Z,-0.61
2024-01-15T14:17:34.636Z,-0.60
2024-01-15T14:20:02.541Z,-0.58
2024-01-15T14:22:30.249Z,-0.61
2024-01-15T14:24:57.906Z,-0.66
2024-01-15T14:27:27.720Z,-0.65
2024-01-15T14:29:55.340Z,-0.70
2024-01-15T14:32:23.062Z,-0.68
2024-01-15T14:34:50.766Z,-0.73
2024-01-15T14:37:18.521Z,-0.74
2024-01-15T14:39:46.102Z,-0.77
2024-01-15T14:42:13.735Z,-0.82
2024-01-15T14:44:42.801Z,-0.88
2024-01-15T14:47:10.466Z,-0.88
2024-01-15T14:49:38.174Z,-0.88
2024-01-15T14:52:06.388Z,-0.92
2024-01-15T14:54:34.161Z,-0.92
2024-01-15T14:57:02.042Z,-0.91
2024-01-15T14:59:30.908Z,-0.91
2024-01-15T15:02:00.055Z,-0.89
2024-01-15T15:04:28.116Z,-0.84
2024-01-15T15:06:56.242Z,-0.80
2024-01-15T15:09:24.048Z,-0.82
2024-01-15T15:11:53.248Z,-0.95
2024-01-15T15:14:20.949Z,-0.93
2024-01-15T15:16:48.636Z,-1.00
2024-01-15T15:19:18.815Z,-0.97
2024-01-15T15:21:46.881Z,-0.98
2024-01-15T15:24:14.638Z,-0.94
2024-01-15T15:26:42.285Z,-0.91
2024-01-15T15:29:09.950Z,-0.89
2024-01-15T15:31:38.301Z,-0.90
2024-01-15T15:34:06.121Z,-0.95
2024-01-15T15:36:35.642Z,-0.95
2024-01-15T15:39:03.468Z,-1.04
2024-01-15T15:41:31.120Z,-1.02
2024-01-15T15:43:58.842Z,-1.04
2024-01-15T15:46:26.372Z,-1.09
2024-01-15T15:48:54.072Z,-1.10
2024-01-15T15:51:21.795Z,-1.08
2024-01-15T15:53:52.971Z,-1.13
2024-01-15T15:56:20.760Z,-1.18
2024-01-15T15:58:48.537Z,-1.20
2024-01-15T16:01:16.453Z,-1.21
2024-01-15T16:03:44.224Z,-1.18
2024-01-15T16:06:12.531Z,-1.25
2024-01-15T16:08:40.350Z,-1.24
2024-01-15T16:11:09.351Z,-1.26
2024-01-15T16:13:36.921Z,-1.23
2024-01-15T16:23:09.535Z,-1.24
2024-01-15T16:23:22.595Z,-1.27
2024-01-15T16:23:37.554Z,-1.25
2024-01-15T16:24:37.156Z,-1.27
2024-01-15T16:29:50.957Z,-1.37
2024-01-15T16:32:18.675Z,-1.38
2024-01-15T16:34:46.378Z,-1.41
2024-01-15T16:37:14.017Z,-1.38
2024-01-15T16:39:41.722Z,-1.46
2024-01-15T16:42:10.004Z,-1.44
2024-01-15T16:44:39.441Z,-1.40
2024-01-15T16:47:08.859Z,-1.40
2024-01-15T16:49:36.880Z,-1.44
2024-01-15T16:52:07.889Z,-1.50
2024-01-15T16:54:36.305Z,-1.55
2024-01-15T16:57:04.437Z,-1.58
2024-01-15T16:59:32.215Z,-1.55
2024-01-15T17:02:01.333Z,-1.57
2024-01-15T17:04:29.193Z,-1.58
2024-01-15T17:06:57.464Z,-1.57
2024-01-15T17:09:25.156Z,-1.51
2024-01-15T17:11:52.797Z,-1.49
2024-01-15T17:14:20.927Z,-1.48
2024-01-15T17:16:49.090Z,-1.54
2024-01-15T17:19:18.239Z,-1.56
2024-01-15T17:21:45.906Z,-1.55
2024-01-15T17:24:14.225Z,-1.58
2024-01-15T17:26:41.812Z,-1.60
2024-01-15T17:29:09.577Z,-1.59
2024-01-15T17:31:37.470Z,-1.58
2024-01-15T17:34:05.481Z,-1.61
2024-01-15T17:36:34.691Z,-1.58
2024-01-15T17:39:02.264Z,-1.54
2024-01-15T17:41:30.056Z,-1.54
2024-01-15T17:43:57.679Z,-1.54
2024-01-15T17:46:27.392Z,-1.54
2024-01-15T17:49:04.038Z,-1.54
2024-01-15T17:51:32.819Z,-1.51
2024-01-15T17:54:02.648Z,-1.53
2024-01-15T17:56:30.697Z,-1.53
2024-01-15T17:58:58.360Z,-1.51
2024-01-15T18:01:25.950Z,-1.52
2024-01-15T18:03:53.907Z,-1.51
2024-01-15T18:06:21.526Z,-1.51
2024-01-15T18:08:49.122Z,-1.50
2024-01-15T18:11:19.264Z,-1.50
2024-01-15T18:13:47.282Z,-1.52
2024-01-15T18:16:15.183Z,-1.52
2024-01-15T18:18:43.196Z,-1.54
2024-01-15T18:21:10.830Z,-1.55
2024-01-15T18:23:38.427Z,-1.59
2024-01-15T18:26:06.242Z,-1.57
2024-01-15T18:28:35.254Z,-1.56
2024-01-15T18:31:02.815Z,-1.57
2024-01-15T18:33:30.545Z,-1.55
2024-01-15T18:35:58.295Z,-1.53
2024-01-15T18:38:25.963Z,-1.52
2024-01-15T18:40:54.020Z,-1.59
2024-01-15T18:43:22.984Z,-1.60
2024-01-15T18:45:52.854Z,-1.63
2024-01-15T18:48:20.683Z,-1.61
2024-01-15T18:50:49.357Z,-1.63
2024-01-15T18:53:17.033Z,-1.61
2024-01-15T18:55:44.674Z,-1.63
2024-01-15T18:58:12.338Z,-1.62
2024-01-15T19:00:39.964Z,-1.57
2024-01-15T19:03:09.413Z,-1.59
2024-01-15T19:05:40.187Z,-1.58
2024-01-15T19:08:07.943Z,-1.59
2024-01-15T19:10:35.710Z,-1.54
2024-01-15T19:13:06.872Z,-1.53
2024-01-15T19:15:34.792Z,-1.56
2024-01-15T19:18:02.626Z,-1.55
2024-01-15T19:20:33.314Z,-1.52
2024-01-15T19:23:02.797Z,-1.61
2024-01-15T19:25:30.732Z,-1.63
2024-01-15T19:27:58.382Z,-1.66
2024-01-15T19:30:25.954Z,-1.61
2024-01-15T19:32:53.900Z,-1.57
2024-01-15T19:35:21.650Z,-1.54
2024-01-15T19:37:50.866Z,-1.54
2024-01-15T19:40:18.936Z,-1.51
2024-01-15T19:42:46.827Z,-1.49
2024-01-15T19:45:14.544Z,-1.52
2024-01-15T19:47:42.487Z,-1.50
2024-01-15T19:50:10.831Z,-1.49
2024-01-15T19:52:38.584Z,-1.51
2024-01-15T19:55:08.975Z,-1.55
2024-01-15T19:57:36.692Z,-1.50
2024-01-15T20:00:05.539Z,-1.50
2024-01-15T20:02:33.508Z,-1.48
2024-01-15T20:05:01.710Z,-1.52
2024-01-15T20:07:29.532Z,-1.52
2024-01-15T20:09:58.013Z,-1.54
2024-01-15T20:12:27.019Z,-1.49
2024-01-15T20:14:54.615Z,-1.49
2024-01-15T20:17:24.908Z,-1.52
2024-01-15T20:19:53.998Z,-1.48
2024-01-15T20:22:21.913Z,-1.49
2024-01-15T20:24:49.644Z,-1.46
2024-01-15T20:27:17.510Z,-1.51
2024-01-15T20:29:46.706Z,-1.52
2024-01-15T20:32:17.147Z,-1.47
2024-01-15T20:34:44.959Z,-1.46
2024-01-15T20:37:13.044Z,-1.52
2024-01-15T20:39:40.775Z,-1.51
2024-01-15T20:42:08.685Z,-1.52
2024-01-15T20:44:36.523Z,-1.53
2024-01-15T20:47:05.811Z,-1.52
2024-01-15T20:49:33.388Z,-1.56
2024-01-15T20:52:01.161Z,-1.56
2024-01-15T20:54:28.737Z,-1.53
2024-01-15T20:56:56.922Z,-1.48
2024-01-15T20:59:25.094Z,-1.49
2024-01-15T21:01:52.916Z,-1.51
2024-01-15T21:04:23.371Z,-1.52
2024-01-15T21:06:51.999Z,-1.53
2024-01-15T21:09:20.188Z,-1.56
2024-01-15T21:11:47.805Z,-1.61
2024-01-15T21:14:19.516Z,-1.59
2024-01-15T21:16:47.788Z,-1.58
2024-01-15T21:19:15.571Z,-1.51
2024-01-15T21:21:48.947Z,-1.57
2024-01-15T21:24:17.321Z,-1.53
2024-01-15T21:26:45.067Z,-1.55
2024-01-15T21:29:13.014Z,-1.56
2024-01-15T21:31:40.714Z,-1.58
2024-01-15T21:34:10.015Z,-1.60
2024-01-15T21:36:38.304Z,-1.58
2024-01-15T21:39:07.328Z,-1.58
2024-01-15T21:41:34.986Z,-1.58
2024-01-15T21:44:07.531Z,-1.59
2024-01-15T21:46:37.049Z,-1.62
2024-01-15T21:49:07.921Z,-1.63
2024-01-15T21:51:36.228Z,-1.63
2024-01-15T21:54:03.992Z,-1.64
2024-01-15T21:56:32.977Z,-1.61
2024-01-15T21:59:01.309Z,-1.60
2024-01-15T22:01:29.566Z,-1.64
2024-01-15T22:03:57.292Z,-1.65
2024-01-15T22:06:25.086Z,-1.60
2024-01-15T22:08:52.829Z,-1.60
2024-01-15T22:11:20.453Z,-1.64
2024-01-15T22:13:49.494Z,-1.62
2024-01-15T22:16:17.094Z,-1.63
2024-01-15T22:18:45.363Z,-1.65
2024-01-15T22:21:13.060Z,-1.64
2024-01-15T22:23:41.336Z,-1.65
2024-01-15T22:26:09.086Z,-1.63
2024-01-15T22:28:36.683Z,-1.66
2024-01-15T22:31:05.755Z,-1.65
2024-01-15T22:33:33.419Z,-1.66
2024-01-15T22:36:01.145Z,-1.63
2024-01-15T22:38:28.773Z,-1.60
2024-01-15T22:40:56.462Z,-1.72
2024-01-15T22:43:24.072Z,-1.63
2024-01-15T22:45:52.035Z,-1.63
2024-01-15T22:48:21.345Z,-1.64
2024-01-15T22:50:49.046Z,-1.66
2024-01-15T22:53:16.716Z,-1.65
2024-01-15T22:55:44.374Z,-1.64
2024-01-15T22:58:11.988Z,-1.64
2024-01-15T23:00:44.724Z,-1.65
2024-01-15T23:03:12.941Z,-1.63
2024-01-15T23:05:42.262Z,-1.69
2024-01-15T23:08:09.874Z,-1.69
2024-01-15T23:10:37.481Z,-1.69
2024-01-15T23:13:05.284Z,-1.69
2024-01-15T23:15:32.917Z,-1.69
2024-01-15T23:18:01.010Z,-1.72
2024-01-15T23:20:28.848Z,-1.68
2024-01-15T23:22:57.793Z,-1.68
2024-01-15T23:25:25.408Z,-1.68
2024-01-15T23:27:52.992Z,-1.72
2024-01-15T23:30:21.044Z,-1.73
2024-01-15T23:32:49.561Z,-1.71
2024-01-15T23:35:17.555Z,-1.73
2024-01-15T23:37:45.096Z,-1.73
2024-01-15T23:40:15.055Z,-1.79
2024-01-15T23:42:42.662Z,-1.78
2024-01-15T23:45:10.412Z,-1.79
2024-01-15T23:47:38.071Z,-1.83
2024-01-15T23:50:06.245Z,-1.79
2024-01-15T23:52:33.896Z,-1.80
2024-01-15T23:55:01.446Z,-1.84
2024-01-15T23:57:30.385Z,-1.83
2024-01-15T23:59:58.497Z,-1.87
